Time;durP1;ratioP1;P1;durP2;ratioP2;P2;SDS_P1;SDS_P2;PMS_P1;PMS_P2;Temp;Humidity;BMP_temperature;BMP_pressure;BME280_temperature;BME280_humidity;BME280_pressure;Samples;Min_cycle;Max_cycle;Signal;HPM_P1;HPM_P2
2023/04/01 00:00:34;;;;;;;1723.27;165.60;;;9.40;99.90;;;;;;5069151;28;20236;-50
2023/04/01 00:03:02;;;;;;;1999.90;243.80;;;9.30;99.90;;;;;;5068441;28;20735;-51
2023/04/01 00:05:31;;;;;;;1999.90;353.20;;;9.40;99.90;;;;;;5068904;28;20216;-50
2023/04/01 00:08:00;;;;;;;945.07;114.43;;;9.40;99.90;;;;;;5069265;28;20221;-51
2023/04/01 00:10:28;;;;;;;1999.90;262.40;;;9.40;99.90;;;;;;5068943;28;20244;-51
2023/04/01 00:12:56;;;;;;;1743.77;217.17;;;9.40;99.90;;;;;;5069065;28;20252;-51
2023/04/01 00:15:24;;;;;;;794.03;106.80;;;9.40;99.90;;;;;;5068894;28;20252;-51
2023/04/01 00:17:54;;;;;;;1253.00;136.47;;;9.50;99.90;;;;;;5069118;28;20233;-51
2023/04/01 00:20:22;;;;;;;1999.90;319.63;;;9.40;99.90;;;;;;5069117;28;20219;-51
2023/04/01 00:22:51;;;;;;;1425.97;191.13;;;9.40;99.90;;;;;;5067987;28;20584;-50
2023/04/01 00:25:19;;;;;;;1619.17;212.97;;;9.40;99.90;;;;;;5069292;28;20243;-50
2023/04/01 00:27:47;;;;;;;1904.83;191.90;;;9.40;99.90;;;;;;5068752;28;20219;-51
2023/04/01 00:30:16;;;;;;;1596.13;193.80;;;9.40;99.90;;;;;;5068956;28;20685;-51
2023/04/01 00:32:44;;;;;;;1999.90;310.53;;;9.40;99.90;;;;;;5068479;28;20314;-50
2023/04/01 00:35:13;;;;;;;1434.20;168.90;;;9.40;99.90;;;;;;5068906;28;20209;-51
2023/04/01 00:37:41;;;;;;;1999.90;286.43;;;9.40;99.90;;;;;;5068412;28;20713;-50
2023/04/01 00:40:21;;;;;;;1999.90;238.17;;;9.30;99.90;;;;;;5067781;28;20219;-51
2023/04/01 00:42:50;;;;;;;1999.90;258.20;;;9.30;99.90;;;;;;5068775;28;20219;-51
2023/04/01 00:45:33;;;;;;;1250.60;126.40;;;9.30;99.90;;;;;;5069023;28;20233;-50
2023/04/01 00:48:06;;;;;;;1993.50;252.97;;;9.30;99.90;;;;;;5068635;28;20235;-51
2023/04/01 00:50:37;;;;;;;1296.60;107.70;;;9.30;99.90;;;;;;5069255;28;20292;-50
2023/04/01 00:53:07;;;;;;;803.00;89.53;;;9.30;99.90;;;;;;5068873;28;20269;-49
2023/04/01 00:55:41;;;;;;;1999.90;465.53;;;9.30;99.90;;;;;;5069275;28;20228;-50
2023/04/01 00:58:15;;;;;;;1999.90;350.53;;;9.30;99.90;;;;;;5068877;28;20263;-51
2023/04/01 01:00:44;;;;;;;1999.90;283.10;;;9.30;99.90;;;;;;5068906;28;20303;-50
2023/04/01 01:03:12;;;;;;;841.33;93.80;;;9.30;99.90;;;;;;5068862;28;20228;-49
2023/04/01 01:06:00;;;;;;;962.20;125.67;;;9.30;99.90;;;;;;5068802;28;20205;-51
2023/04/01 01:08:40;;;;;;;1999.90;280.43;;;9.30;99.90;;;;;;5068401;28;20619;-50
2023/04/01 01:11:11;;;;;;;1999.90;321.17;;;9.20;99.90;;;;;;5068548;28;21017;-50
2023/04/01 01:13:48;;;;;;;1999.90;613.13;;;9.20;99.90;;;;;;5068451;28;20231;-51
2023/04/01 01:16:24;;;;;;;1595.43;193.87;;;9.20;99.90;;;;;;5058872;28;20307;-51
2023/04/01 01:18:58;;;;;;;1746.70;222.20;;;9.20;99.90;;;;;;5072373;28;20692;-49
2023/04/01 01:21:51;;;;;;;419.37;45.10;;;9.20;99.90;;;;;;5071186;28;20257;-51
2023/04/01 01:24:33;;;;;;;1496.23;150.00;;;9.20;99.90;;;;;;5072001;28;20973;-50
2023/04/01 01:27:04;;;;;;;1311.23;136.60;;;9.20;99.90;;;;;;5075457;28;20241;-50
2023/04/01 01:30:03;;;;;;;1087.23;128.20;;;9.20;99.90;;;;;;5064849;28;20242;-51
2023/04/01 01:32:59;;;;;;;1348.33;177.37;;;9.20;99.90;;;;;;5072336;28;20204;-50
2023/04/01 01:35:33;;;;;;;1999.90;238.00;;;9.20;99.90;;;;;;5064001;28;20661;-51
2023/04/01 01:38:07;;;;;;;815.93;74.43;;;9.20;99.90;;;;;;5091985;28;20227;-51
2023/04/01 01:40:37;;;;;;;1891.33;233.67;;;9.20;99.90;;;;;;5064275;28;20287;-50
2023/04/01 01:43:09;;;;;;;1331.77;179.30;;;9.20;99.90;;;;;;5092241;28;20253;-50
2023/04/01 01:45:40;;;;;;;1474.93;177.03;;;9.20;99.90;;;;;;5092212;28;20212;-50
2023/04/01 01:48:10;;;;;;;1470.33;155.07;;;9.20;99.90;;;;;;5092110;28;20265;-50
2023/04/01 01:50:41;;;;;;;1623.27;176.70;;;9.20;99.90;;;;;;5092095;28;20208;-50
2023/04/01 01:53:12;;;;;;;675.90;65.47;;;9.20;99.90;;;;;;5086783;28;20242;-50
2023/04/01 01:55:42;;;;;;;1575.47;200.30;;;9.20;99.90;;;;;;5088156;28;20320;-50
2023/04/01 01:58:14;;;;;;;1774.67;188.77;;;9.20;99.90;;;;;;5082136;28;20311;-49
2023/04/01 02:00:45;;;;;;;1999.90;318.77;;;9.20;99.90;;;;;;5084515;28;20295;-51
2023/04/01 02:03:15;;;;;;;1546.43;142.07;;;9.10;99.90;;;;;;5091590;28;20689;-50
2023/04/01 02:05:45;;;;;;;1359.43;161.70;;;9.20;99.90;;;;;;5091612;28;20291;-51
2023/04/01 02:08:17;;;;;;;1349.50;133.83;;;9.10;99.90;;;;;;5091816;28;20291;-50
2023/04/01 02:10:52;;;;;;;1999.90;366.23;;;9.10;99.90;;;;;;5091314;28;20211;-50
2023/04/01 02:13:26;;;;;;;1933.40;248.43;;;9.10;99.90;;;;;;5089579;28;20662;-50
2023/04/01 02:15:59;;;;;;;1999.90;401.07;;;9.10;99.90;;;;;;5091535;28;20637;-50
2023/04/01 02:18:28;;;;;;;1432.37;176.27;;;9.10;99.90;;;;;;5091532;28;20227;-51
2023/04/01 02:21:00;;;;;;;1226.73;138.23;;;9.10;99.90;;;;;;5091232;28;20315;-50
2023/04/01 02:23:29;;;;;;;1999.90;396.40;;;9.10;99.90;;;;;;5091130;28;20830;-50
2023/04/01 02:25:57;;;;;;;1999.90;243.17;;;9.10;99.90;;;;;;5080092;28;20209;-50
2023/04/01 02:28:27;;;;;;;1503.40;182.43;;;9.10;99.90;;;;;;5082757;28;20243;-50
2023/04/01 02:30:56;;;;;;;1759.50;253.33;;;9.10;99.90;;;;;;5077957;28;20300;-50
2023/04/01 02:33:25;;;;;;;1027.93;123.90;;;9.00;99.90;;;;;;5090329;28;20207;-50
2023/04/01 02:35:53;;;;;;;1412.77;157.83;;;9.10;99.90;;;;;;5091158;28;20298;-50
2023/04/01 02:38:23;;;;;;;1999.90;258.87;;;9.10;99.90;;;;;;5090628;28;20798;-50
2023/04/01 02:40:57;;;;;;;1999.90;524.57;;;9.10;99.90;;;;;;5090896;28;20553;-50
2023/04/01 02:43:25;;;;;;;366.70;57.90;;;9.00;99.90;;;;;;5090897;28;20298;-50
2023/04/01 02:45:53;;;;;;;1999.90;289.17;;;9.00;99.90;;;;;;5090917;28;20232;-50
2023/04/01 02:48:21;;;;;;;1999.90;476.10;;;9.00;99.90;;;;;;5090638;28;20287;-50
2023/04/01 02:50:49;;;;;;;901.83;112.83;;;9.00;99.90;;;;;;5090595;28;20671;-50
2023/04/01 02:53:17;;;;;;;1284.90;145.13;;;9.00;99.90;;;;;;5090728;28;20242;-49
2023/04/01 02:55:50;;;;;;;679.33;74.17;;;9.00;99.90;;;;;;5090854;28;20222;-49
2023/04/01 02:58:18;;;;;;;1999.90;337.10;;;9.10;99.90;;;;;;5090413;28;20817;-50
2023/04/01 03:00:46;;;;;;;1370.83;161.50;;;9.00;99.90;;;;;;5090710;28;20299;-51
2023/04/01 03:03:15;;;;;;;1797.13;194.37;;;9.00;99.90;;;;;;5090201;28;20208;-50
2023/04/01 03:05:43;;;;;;;1999.90;355.60;;;9.00;99.90;;;;;;5090281;28;20204;-51
2023/04/01 03:08:11;;;;;;;1830.43;203.77;;;8.90;99.90;;;;;;5090580;28;20212;-51
2023/04/01 03:10:39;;;;;;;1913.10;203.23;;;8.90;99.90;;;;;;5088892;28;20655;-51
2023/04/01 03:13:09;;;;;;;1999.90;241.63;;;8.90;99.90;;;;;;5080315;28;20677;-50
2023/04/01 03:15:37;;;;;;;1399.73;153.93;;;8.90;99.90;;;;;;5090394;28;20247;-51
2023/04/01 03:18:05;;;;;;;1999.90;240.13;;;8.90;99.90;;;;;;5090416;28;20657;-51
2023/04/01 03:20:33;;;;;;;1397.60;174.30;;;8.90;99.90;;;;;;5077291;28;20748;-51
2023/04/01 03:23:01;;;;;;;1228.77;120.70;;;8.90;99.90;;;;;;5089951;28;20295;-51
2023/04/01 03:25:30;;;;;;;1999.90;343.50;;;8.90;99.90;;;;;;5083514;28;20891;-51
2023/04/01 03:27:59;;;;;;;1999.90;292.03;;;8.90;99.90;;;;;;5083657;28;20260;-50
2023/04/01 03:30:30;;;;;;;1999.90;343.63;;;8.90;99.90;;;;;;5073317;28;20201;-51
2023/04/01 03:32:59;;;;;;;1999.90;309.43;;;8.90;99.90;;;;;;5073886;28;20200;-51
2023/04/01 03:35:27;;;;;;;1999.90;393.17;;;8.80;99.90;;;;;;5089947;28;20734;-50
2023/04/01 03:37:56;;;;;;;1999.90;273.27;;;8.80;99.90;;;;;;5089400;28;20258;-50
2023/04/01 03:40:25;;;;;;;811.07;109.67;;;8.90;99.90;;;;;;5090058;28;20255;-51
2023/04/01 03:42:53;;;;;;;1999.90;364.80;;;8.90;99.90;;;;;;5089415;28;20210;-50
2023/04/01 03:45:22;;;;;;;1999.90;459.10;;;8.90;99.90;;;;;;5089773;28;20299;-50
2023/04/01 03:47:51;;;;;;;1914.93;229.23;;;8.80;99.90;;;;;;5089851;28;20255;-50
2023/04/01 03:50:19;;;;;;;1999.90;316.00;;;8.80;99.90;;;;;;5075178;28;20204;-50
2023/04/01 03:52:47;;;;;;;1999.90;200.63;;;8.80;99.90;;;;;;5084778;28;20665;-51
2023/04/01 03:55:16;;;;;;;1999.90;260.77;;;8.80;99.90;;;;;;5086608;28;20735;-51
2023/04/01 03:57:44;;;;;;;1912.50;231.43;;;8.80;99.90;;;;;;5089568;28;20306;-50
2023/04/01 04:00:13;;;;;;;1999.90;294.97;;;8.80;99.90;;;;;;5089169;28;20731;-50
2023/04/01 04:02:41;;;;;;;1906.87;225.27;;;8.70;99.90;;;;;;5089269;28;20291;-50
2023/04/01 04:05:11;;;;;;;1962.90;277.90;;;8.80;99.90;;;;;;5086838;28;20275;-50
2023/04/01 04:07:39;;;;;;;1999.90;719.47;;;8.80;99.90;;;;;;5089024;28;20220;-50
2023/04/01 04:10:08;;;;;;;1999.90;274.93;;;8.70;99.90;;;;;;5089316;28;20205;-51
2023/04/01 04:12:36;;;;;;;1600.63;221.80;;;8.70;99.90;;;;;;5089334;28;20257;-50
2023/04/01 04:15:05;;;;;;;1999.90;339.13;;;8.80;99.90;;;;;;5085436;28;20286;-50
2023/04/01 04:17:33;;;;;;;1999.90;222.57;;;8.70;99.90;;;;;;5086934;28;20651;-50
2023/04/01 04:20:00;;;;;;;1182.10;129.80;;;8.80;99.90;;;;;;5080103;28;20274;-51
2023/04/01 04:22:30;;;;;;;1271.87;148.57;;;8.80;99.90;;;;;;5080143;28;20579;-50
2023/04/01 04:24:58;;;;;;;1999.90;345.03;;;8.80;99.90;;;;;;5078783;28;20656;-51
2023/04/01 04:27:26;;;;;;;1999.90;266.63;;;8.80;99.90;;;;;;5088936;28;20252;-50
2023/04/01 04:29:54;;;;;;;1936.47;248.13;;;8.80;99.90;;;;;;5084316;28;20294;-51
2023/04/01 04:32:22;;;;;;;693.17;72.63;;;8.80;99.90;;;;;;5079616;28;20207;-51
2023/04/01 04:34:50;;;;;;;740.80;113.07;;;8.70;99.90;;;;;;5089027;28;20205;-50
2023/04/01 04:37:18;;;;;;;1468.67;155.73;;;8.80;99.90;;;;;;5089058;28;20614;-51
2023/04/01 04:39:47;;;;;;;1508.77;171.87;;;8.80;99.90;;;;;;5088882;28;20700;-50
2023/04/01 04:42:15;;;;;;;1310.73;147.97;;;8.80;99.90;;;;;;5089081;28;20208;-51
2023/04/01 04:44:43;;;;;;;1999.90;369.77;;;8.80;99.90;;;;;;5089061;28;20294;-50
2023/04/01 04:47:11;;;;;;;653.17;94.17;;;8.70;99.90;;;;;;5088952;28;20314;-50
2023/04/01 04:49:39;;;;;;;1980.43;249.20;;;8.70;99.90;;;;;;5089660;28;20257;-50
2023/04/01 04:52:07;;;;;;;707.33;93.27;;;8.80;99.90;;;;;;5093202;28;20230;-50
2023/04/01 04:54:35;;;;;;;1999.90;304.63;;;8.80;99.90;;;;;;5093041;28;20286;-51
2023/04/01 04:57:05;;;;;;;1999.90;279.13;;;8.80;99.90;;;;;;5078671;28;20331;-50
2023/04/01 04:59:33;;;;;;;684.90;86.10;;;8.80;99.90;;;;;;5093071;28;20202;-50
2023/04/01 05:02:02;;;;;;;1999.90;232.83;;;8.80;99.90;;;;;;5089330;28;20212;-52
2023/04/01 05:04:30;;;;;;;1999.90;313.27;;;8.80;99.90;;;;;;5079471;28;20216;-50
2023/04/01 05:06:58;;;;;;;1220.87;151.73;;;8.70;99.90;;;;;;5084716;28;20232;-50
2023/04/01 05:09:26;;;;;;;1360.17;153.83;;;8.70;99.90;;;;;;5076112;28;20230;-51
2023/04/01 05:11:54;;;;;;;1936.40;201.00;;;8.70;99.90;;;;;;5086888;28;20657;-50
2023/04/01 05:14:23;;;;;;;1999.90;508.57;;;8.70;99.90;;;;;;5089821;28;20204;-50
2023/04/01 05:16:51;;;;;;;765.93;103.17;;;8.70;99.90;;;;;;5093114;28;20227;-50
2023/04/01 05:19:19;;;;;;;1812.40;175.17;;;8.70;99.90;;;;;;5090708;28;20205;-51
2023/04/01 05:21:47;;;;;;;1999.90;403.40;;;8.70;99.90;;;;;;5087697;28;20231;-51
2023/04/01 05:24:15;;;;;;;1999.90;370.90;;;8.70;99.90;;;;;;5089621;28;20262;-50
2023/04/01 05:26:43;;;;;;;1999.90;310.53;;;8.70;99.90;;;;;;5074375;28;20228;-50
2023/04/01 05:29:11;;;;;;;733.90;99.53;;;8.70;99.90;;;;;;5086062;28;20282;-50
2023/04/01 05:31:41;;;;;;;1999.90;269.03;;;8.70;99.90;;;;;;5077919;28;20794;-51
2023/04/01 05:34:09;;;;;;;1439.13;180.73;;;8.70;99.90;;;;;;5090319;28;20757;-51
2023/04/01 05:36:37;;;;;;;283.73;36.60;;;8.70;99.90;;;;;;5086049;28;20315;-49
2023/04/01 05:39:05;;;;;;;404.17;73.23;;;8.80;99.90;;;;;;5081245;28;20211;-51
2023/04/01 05:41:36;;;;;;;1846.20;210.57;;;8.80;99.90;;;;;;5078655;28;20235;-50
2023/04/01 05:44:04;;;;;;;1037.47;122.50;;;8.80;99.90;;;;;;5078654;28;20200;-50
2023/04/01 05:46:33;;;;;;;1999.90;299.27;;;8.80;99.90;;;;;;5071795;28;20765;-51
2023/04/01 05:49:02;;;;;;;1999.90;599.27;;;8.80;99.90;;;;;;5064950;28;20209;-51
2023/04/01 05:51:30;;;;;;;1320.07;162.10;;;8.70;99.90;;;;;;5071529;28;20295;-51
2023/04/01 05:53:58;;;;;;;1999.90;407.37;;;8.70;99.90;;;;;;5064021;28;20233;-51
2023/04/01 05:56:27;;;;;;;1414.97;143.50;;;8.70;99.90;;;;;;5071288;28;20307;-51
2023/04/01 05:58:55;;;;;;;1999.90;397.70;;;8.70;99.90;;;;;;5071073;28;20791;-51
2023/04/01 06:01:23;;;;;;;1999.90;315.93;;;8.60;99.90;;;;;;5069908;28;20225;-51
2023/04/01 06:03:51;;;;;;;490.90;79.20;;;8.70;99.90;;;;;;5071046;28;20680;-51
2023/04/01 06:06:25;;;;;;;962.27;130.40;;;8.70;99.90;;;;;;5071247;28;20236;-51
2023/04/01 06:08:53;;;;;;;1999.90;455.87;;;8.80;99.90;;;;;;5071526;28;20335;-51
2023/04/01 06:11:33;;;;;;;1997.03;222.63;;;8.80;99.90;;;;;;5071481;28;20201;-51
2023/04/01 06:14:15;;;;;;;1999.90;286.30;;;8.70;99.90;;;;;;5077832;28;20236;-51
2023/04/01 06:17:03;;;;;;;1876.33;180.03;;;8.80;99.90;;;;;;5066077;28;20232;-51
2023/04/01 06:19:40;;;;;;;1999.90;451.83;;;8.80;99.90;;;;;;5071988;28;20214;-51
2023/04/01 06:22:42;;;;;;;1999.90;215.10;;;8.70;99.90;;;;;;5081473;28;20279;-50
2023/04/01 06:25:31;;;;;;;1999.90;359.77;;;8.70;99.90;;;;;;5071170;28;20318;-50
2023/04/01 06:28:35;;;;;;;1834.20;216.97;;;8.70;99.90;;;;;;5071321;28;20236;-51
2023/04/01 06:31:08;;;;;;;818.70;90.87;;;8.80;99.90;;;;;;5070669;28;20203;-50
2023/04/01 06:33:50;;;;;;;1999.90;257.70;;;8.80;99.90;;;;;;5070881;28;20212;-51
2023/04/01 06:36:43;;;;;;;1988.73;261.90;;;8.90;99.90;;;;;;5086544;28;20255;-50
2023/04/01 06:39:38;;;;;;;1999.90;347.57;;;8.80;99.90;;;;;;5091694;28;20212;-51
2023/04/01 06:42:23;;;;;;;1514.90;189.33;;;8.90;99.90;;;;;;5064604;28;20313;-51
2023/04/01 06:45:00;;;;;;;1999.90;353.67;;;8.90;99.90;;;;;;5080757;28;20287;-51
2023/04/01 06:47:39;;;;;;;1999.90;363.57;;;8.90;99.90;;;;;;5091301;28;20224;-51
2023/04/01 06:50:17;;;;;;;1999.90;258.30;;;8.90;99.90;;;;;;5085672;28;20227;-50
2023/04/01 06:52:56;;;;;;;1999.90;481.90;;;8.90;99.90;;;;;;5091292;28;20635;-50
2023/04/01 06:55:32;;;;;;;1999.90;261.03;;;8.90;99.90;;;;;;5091114;28;20295;-50
2023/04/01 06:58:06;;;;;;;1999.90;269.93;;;8.90;99.90;;;;;;5091073;28;20727;-49
2023/04/01 07:00:37;;;;;;;907.87;132.30;;;9.00;99.90;;;;;;5086392;28;20204;-51
2023/04/01 07:03:20;;;;;;;1999.90;358.53;;;9.00;99.90;;;;;;5082434;28;20294;-51
2023/04/01 07:05:48;;;;;;;818.10;107.63;;;9.00;99.90;;;;;;5076780;28;20215;-50
2023/04/01 07:08:21;;;;;;;593.33;64.37;;;9.10;99.90;;;;;;5077871;28;20292;-50
2023/04/01 07:10:54;;;;;;;1999.90;291.57;;;9.10;99.90;;;;;;5070561;28;20299;-51
2023/04/01 07:13:28;;;;;;;1498.70;198.67;;;9.10;99.90;;;;;;5083145;28;20669;-51
2023/04/01 07:16:04;;;;;;;1999.90;247.03;;;9.10;99.90;;;;;;5070628;28;20279;-50
2023/04/01 07:18:38;;;;;;;1873.63;211.73;;;9.10;99.90;;;;;;5067832;28;20355;-50
2023/04/01 07:21:10;;;;;;;1360.60;148.90;;;9.20;99.90;;;;;;5069011;28;20229;-50
2023/04/01 07:23:43;;;;;;;515.93;66.00;;;9.20;99.90;;;;;;5072416;28;20292;-51
2023/04/01 07:26:18;;;;;;;1999.90;340.53;;;9.30;99.90;;;;;;5082623;28;20227;-50
2023/04/01 07:28:47;;;;;;;1999.90;345.40;;;9.40;99.90;;;;;;5072962;28;20239;-49
2023/04/01 07:31:23;;;;;;;1959.90;222.97;;;9.40;99.90;;;;;;5068517;28;20205;-50
2023/04/01 07:33:59;;;;;;;594.27;90.07;;;9.40;99.90;;;;;;5069496;28;20288;-50
2023/04/01 07:36:34;;;;;;;1652.33;217.30;;;9.40;99.90;;;;;;5069212;28;20315;-50
2023/04/01 07:39:11;;;;;;;1999.90;273.37;;;9.50;99.90;;;;;;5068753;28;20299;-50
2023/04/01 07:41:48;;;;;;;744.53;95.40;;;9.50;99.90;;;;;;5068867;28;20233;-50
2023/04/01 07:44:26;;;;;;;439.60;69.10;;;9.50;99.90;;;;;;5069009;28;20212;-50
2023/04/01 07:47:07;;;;;;;446.77;54.33;;;9.50;99.90;;;;;;5068802;28;20778;-50
2023/04/01 07:49:44;;;;;;;263.73;44.40;;;9.60;99.90;;;;;;5069455;28;20201;-49
2023/04/01 07:52:20;;;;;;;1196.93;191.40;;;9.60;99.90;;;;;;5068052;28;20200;-51
2023/04/01 07:54:54;;;;;;;1152.30;177.03;;;9.60;99.90;;;;;;5068787;28;20324;-51
2023/04/01 07:57:25;;;;;;;1559.20;162.93;;;9.60;99.90;;;;;;5068423;28;20224;-50
2023/04/01 08:00:01;;;;;;;348.47;69.37;;;9.60;99.90;;;;;;5069506;28;20205;-51
2023/04/01 08:02:45;;;;;;;444.90;48.03;;;9.60;99.90;;;;;;5065075;28;20270;-50
2023/04/01 08:05:23;;;;;;;290.00;52.00;;;9.70;99.90;;;;;;5066828;28;20219;-51
2023/04/01 08:08:00;;;;;;;1109.50;118.77;;;9.80;99.90;;;;;;5059797;28;20242;-51
2023/04/01 08:10:37;;;;;;;1714.60;187.67;;;9.80;99.90;;;;;;5065469;28;20200;-51
2023/04/01 08:13:16;;;;;;;122.33;23.23;;;9.80;99.90;;;;;;5068162;28;20304;-51
2023/04/01 08:15:54;;;;;;;909.17;100.47;;;9.80;99.90;;;;;;5067865;28;20219;-51
2023/04/01 08:18:33;;;;;;;992.43;98.40;;;9.70;99.90;;;;;;5074499;28;20200;-50
2023/04/01 08:21:03;;;;;;;1132.00;144.53;;;9.80;99.90;;;;;;5069240;28;20307;-51
2023/04/01 08:23:34;;;;;;;1999.90;783.17;;;9.80;99.90;;;;;;5059952;28;20236;-50
2023/04/01 08:26:09;;;;;;;1625.63;187.20;;;9.80;99.90;;;;;;5067785;28;20261;-50
2023/04/01 08:28:42;;;;;;;1899.33;193.37;;;9.80;99.90;;;;;;5068154;28;20216;-51
2023/04/01 08:31:16;;;;;;;1397.47;211.60;;;9.80;99.90;;;;;;5069275;28;20282;-51
2023/04/01 08:33:48;;;;;;;1316.30;158.17;;;9.80;99.90;;;;;;5080488;28;20265;-50
2023/04/01 08:36:19;;;;;;;991.00;118.73;;;9.90;99.90;;;;;;5086276;28;20609;-51
2023/04/01 08:38:52;;;;;;;1743.03;232.50;;;9.90;99.90;;;;;;5064065;28;20208;-51
2023/04/01 08:41:53;;;;;;;1306.40;166.80;;;10.00;99.90;;;;;;5080223;28;20296;-51
2023/04/01 08:44:40;;;;;;;1999.90;347.57;;;10.10;99.90;;;;;;5086680;28;20870;-50
2023/04/01 08:47:30;;;;;;;1891.77;291.60;;;10.10;99.90;;;;;;5089026;28;20319;-51
2023/04/01 08:50:26;;;;;;;1999.90;233.87;;;10.20;99.90;;;;;;5065897;28;20204;-51
2023/04/01 08:53:03;;;;;;;1999.90;318.27;;;10.30;99.90;;;;;;5087386;28;20212;-51
2023/04/01 08:55:41;;;;;;;1999.90;376.53;;;10.50;99.90;;;;;;5086351;28;20673;-51
2023/04/01 08:58:26;;;;;;;1986.93;207.53;;;10.50;99.90;;;;;;5087246;28;20236;-51
2023/04/01 09:00:59;;;;;;;1987.13;247.93;;;10.50;99.90;;;;;;5060854;28;20206;-51
2023/04/01 09:03:42;;;;;;;1999.90;254.27;;;10.70;99.90;;;;;;5066469;28;20224;-51
2023/04/01 09:06:34;;;;;;;1999.90;308.10;;;10.80;99.90;;;;;;5068029;28;20221;-51
2023/04/01 09:09:23;;;;;;;1999.90;381.83;;;10.90;99.90;;;;;;5074879;28;20201;-50
2023/04/01 09:12:23;;;;;;;1999.90;271.67;;;10.90;99.90;;;;;;5072525;28;20208;-51
2023/04/01 09:15:23;;;;;;;1999.90;398.60;;;10.90;99.90;;;;;;5053299;28;20307;-50
2023/04/01 09:18:21;;;;;;;1999.90;231.97;;;10.60;99.90;;;;;;5046746;28;20236;-51
2023/04/01 09:21:19;;;;;;;1999.90;263.00;;;10.60;99.90;;;;;;5065977;28;20287;-50
2023/04/01 09:24:30;;;;;;;1999.90;394.30;;;10.70;99.90;;;;;;5065329;28;20677;-51
2023/04/01 09:27:04;;;;;;;1999.90;265.27;;;10.70;99.90;;;;;;5031503;28;20666;-51
2023/04/01 09:30:00;;;;;;;1066.50;146.60;;;10.60;99.90;;;;;;5070155;28;20764;-50
2023/04/01 09:32:58;;;;;;;1999.90;354.73;;;10.70;99.90;;;;;;5057133;28;20212;-50
2023/04/01 09:35:39;;;;;;;1999.90;314.00;;;10.80;99.90;;;;;;5066323;28;20201;-50
2023/04/01 09:38:22;;;;;;;1999.90;338.13;;;10.90;99.90;;;;;;5084742;28;20236;-50
2023/04/01 09:40:56;;;;;;;1999.90;707.83;;;11.10;99.90;;;;;;5071285;28;20678;-50
2023/04/01 09:43:28;;;;;;;1999.90;319.20;;;10.80;99.90;;;;;;5071280;28;20319;-51
2023/04/01 09:46:21;;;;;;;1983.80;235.40;;;10.90;99.90;;;;;;5071336;28;20548;-51
2023/04/01 09:49:18;;;;;;;1283.33;143.20;;;10.90;99.90;;;;;;5064804;28;20307;-51
2023/04/01 09:52:00;;;;;;;1999.90;303.23;;;11.00;99.90;;;;;;5071036;28;20216;-51
2023/04/01 09:54:51;;;;;;;752.53;98.33;;;11.00;99.90;;;;;;5086094;28;20287;-51
2023/04/01 09:57:40;;;;;;;508.13;66.70;;;11.00;99.90;;;;;;5081282;28;20216;-51
2023/04/01 10:00:44;;;;;;;1450.40;158.70;;;11.00;99.90;;;;;;5070989;28;20299;-51
2023/04/01 10:04:01;;;;;;;1798.60;203.27;;;11.00;99.90;;;;;;5064011;28;20275;-52
2023/04/01 10:07:02;;;;;;;1064.97;137.37;;;11.00;99.90;;;;;;5063275;28;20224;-51
2023/04/01 10:10:21;;;;;;;1305.47;161.10;;;11.00;99.90;;;;;;5069664;28;20291;-51
2023/04/01 10:13:20;;;;;;;1914.37;228.73;;;10.90;99.90;;;;;;5035002;28;20311;-51
2023/04/01 10:16:04;;;;;;;516.43;94.53;;;10.90;99.90;;;;;;5074888;28;20205;-51
2023/04/01 10:18:57;;;;;;;1002.60;133.30;;;11.10;99.90;;;;;;5070904;28;20209;-51
2023/04/01 10:22:16;;;;;;;797.97;101.03;;;11.10;99.90;;;;;;5071748;28;20240;-51
2023/04/01 10:25:23;;;;;;;725.43;94.10;;;11.10;99.90;;;;;;4954213;28;20290;-51
2023/04/01 10:28:07;;;;;;;1533.60;210.90;;;11.20;99.90;;;;;;4948149;28;20263;-51
2023/04/01 10:31:13;;;;;;;1031.27;135.07;;;11.10;99.90;;;;;;5058402;28;20291;-51
2023/04/01 10:34:28;;;;;;;1999.90;400.90;;;11.10;99.90;;;;;;5082956;28;20210;-51
2023/04/01 10:36:58;;;;;;;1999.90;468.90;;;11.10;99.90;;;;;;5060759;28;20837;-51
2023/04/01 10:39:56;;;;;;;1263.40;125.77;;;11.10;99.90;;;;;;5082497;28;20196;-51
2023/04/01 10:42:53;;;;;;;1999.90;292.13;;;11.20;99.90;;;;;;5082024;28;20216;-52
2023/04/01 10:46:06;;;;;;;1981.50;263.90;;;11.10;99.90;;;;;;5080709;28;20284;-50
2023/04/01 10:49:03;;;;;;;1999.90;319.33;;;11.20;99.90;;;;;;5069046;28;20220;-50
2023/04/01 10:52:20;;;;;;;1693.27;198.87;;;11.20;99.90;;;;;;5072707;28;20617;-51
2023/04/01 10:54:55;;;;;;;1711.90;207.93;;;11.30;99.90;;;;;;5007873;28;20676;-51
2023/04/01 10:58:01;;;;;;;1157.30;162.57;;;11.20;99.90;;;;;;5003486;28;20225;-51
2023/04/01 11:01:03;;;;;;;1999.90;443.27;;;11.30;99.90;;;;;;5057952;28;20201;-51
2023/04/01 11:04:03;;;;;;;1999.90;519.43;;;11.10;99.90;;;;;;5012919;28;20742;-50
2023/04/01 11:07:16;;;;;;;1999.90;347.30;;;11.00;99.90;;;;;;5061901;28;20311;-50
2023/04/01 11:10:22;;;;;;;1399.50;163.37;;;11.20;99.90;;;;;;5026627;28;20297;-51
2023/04/01 11:13:37;;;;;;;1999.90;241.93;;;11.30;99.90;;;;;;5065104;28;20230;-51
2023/04/01 11:16:44;;;;;;;1999.90;236.13;;;11.40;99.90;;;;;;5065079;28;20304;-51
2023/04/01 11:19:56;;;;;;;1727.17;199.27;;;11.50;99.90;;;;;;5067550;28;20243;-51
2023/04/01 11:22:49;;;;;;;964.07;129.90;;;11.60;99.90;;;;;;5068618;28;20208;-52
2023/04/01 11:25:41;;;;;;;891.93;100.23;;;11.70;99.90;;;;;;5069186;28;20288;-51
2023/04/01 11:28:54;;;;;;;1645.23;213.37;;;11.70;99.90;;;;;;5069461;28;20627;-51
2023/04/01 11:31:36;;;;;;;1999.90;271.07;;;11.80;99.90;;;;;;5044998;28;20207;-51
2023/04/01 11:34:17;;;;;;;1488.13;225.17;;;11.80;99.90;;;;;;5064718;28;20296;-50
2023/04/01 11:36:59;;;;;;;1669.70;208.40;;;11.70;99.90;;;;;;5085691;28;20310;-51
2023/04/01 11:39:35;;;;;;;1999.90;349.17;;;11.60;99.90;;;;;;5056101;28;20216;-51
2023/04/01 11:42:17;;;;;;;1204.40;416.27;;;11.60;99.90;;;;;;5068199;28;20204;-50
2023/04/01 11:44:56;;;;;;;1999.90;326.67;;;11.60;99.90;;;;;;5062765;28;20307;-51
2023/04/01 11:47:44;;;;;;;1285.77;137.43;;;11.60;99.90;;;;;;5069466;28;20311;-52
2023/04/01 11:50:21;;;;;;;792.30;117.20;;;11.50;99.90;;;;;;5068771;28;20207;-51
2023/04/01 11:53:12;;;;;;;886.13;111.20;;;11.40;99.90;;;;;;5069041;28;20242;-51
2023/04/01 11:55:55;;;;;;;988.33;134.73;;;11.60;99.90;;;;;;5067121;28;20665;-51
2023/04/01 11:58:47;;;;;;;482.00;67.37;;;11.60;99.90;;;;;;5069134;28;20205;-51
2023/04/01 12:01:25;;;;;;;1807.93;222.03;;;11.80;99.90;;;;;;5059422;28;20220;-51
2023/04/01 12:04:28;;;;;;;201.43;40.77;;;11.80;99.90;;;;;;5069019;28;20326;-51
2023/04/01 12:07:03;;;;;;;1046.53;130.70;;;11.80;99.90;;;;;;5068264;28;20229;-52
2023/04/01 12:09:43;;;;;;;186.67;37.37;;;11.80;99.90;;;;;;5068190;28;20216;-51
2023/04/01 12:12:19;;;;;;;1566.17;269.50;;;11.90;99.90;;;;;;5068754;28;20212;-51
2023/04/01 12:14:59;;;;;;;1349.17;179.73;;;11.90;99.90;;;;;;5067744;28;20205;-51
2023/04/01 12:17:37;;;;;;;1999.90;304.73;;;11.90;99.90;;;;;;5068060;28;20303;-50
2023/04/01 12:20:37;;;;;;;1999.90;241.87;;;11.90;99.90;;;;;;5069302;28;20216;-51
2023/04/01 12:23:18;;;;;;;1877.60;247.93;;;11.80;99.90;;;;;;5060563;28;20255;-52
2023/04/01 12:26:16;;;;;;;1660.30;186.00;;;11.80;99.90;;;;;;5068638;28;20300;-51
2023/04/01 12:29:00;;;;;;;1667.37;193.37;;;12.00;99.90;;;;;;5053929;28;20237;-52
2023/04/01 12:31:39;;;;;;;1315.90;139.60;;;12.00;99.90;;;;;;5071205;28;20255;-51
2023/04/01 12:34:25;;;;;;;1902.03;218.13;;;12.00;99.90;;;;;;5073003;28;20212;-51
2023/04/01 12:37:04;;;;;;;1623.27;186.60;;;12.10;99.90;;;;;;5074539;28;20234;-51
2023/04/01 12:40:04;;;;;;;1999.90;308.43;;;11.90;99.90;;;;;;5074124;28;20227;-51
2023/04/01 12:42:45;;;;;;;1999.90;287.30;;;11.80;99.90;;;;;;5068668;28;20215;-51
2023/04/01 12:45:29;;;;;;;1148.93;154.77;;;11.60;99.90;;;;;;5086899;28;20602;-51
2023/04/01 12:48:17;;;;;;;1826.70;215.90;;;11.90;99.90;;;;;;5083564;28;20227;-52
2023/04/01 12:51:21;;;;;;;1999.90;291.40;;;12.20;99.90;;;;;;5068334;28;20244;-52
2023/04/01 12:54:10;;;;;;;1999.90;426.63;;;12.30;99.90;;;;;;5062341;28;20291;-52
2023/04/01 12:56:50;;;;;;;1999.90;415.83;;;12.40;99.90;;;;;;5068020;28;20270;-51
2023/04/01 12:59:30;;;;;;;1999.90;515.00;;;12.60;99.90;;;;;;5067891;28;20961;-51
2023/04/01 13:02:02;;;;;;;1999.90;257.07;;;12.80;99.90;;;;;;5064971;28;20212;-51